Nashville (BNA/KBNA)

Information

Location
Nashville, TN
Local Time
06:52 / 6:52 am
GMT Time
12:52 / 12:52 pm
Gates
Unassigned
No FAA reported delays
METAR KBNA 161227Z 00000KT 1SM R02L/4000VP6000FT BCFG BR OVC002 09/08 A3022 RMK AO2 T00940083 $
TAF KBNA 161225Z 1612/1712 13004KT 1SM BR BKN002 FM161400 16006KT 3SM BR BKN010 FM161600 17011KT P6SM BKN070 FM170200 17010G20KT P6SM VCSH OVC060 FM170500 18015G25KT 3SM -SHRA BR OVC015
  • No charts available